Adriatic — WDH8057 — position and weather

sailwx.info

Track history (hours):
 
Tides and Currents Weather Stations Pressure Air Temp Water Temp Dewpoint Dewpoint Depression Visibility Wind Speed Wind Dir Waves Ship Positions

Adriatic

Owner: ADRIATIC MARINE, LLC, Raceland, LA. More information available from US FCC via Universal Licensing System and Coast Guard Vessel Documentation Center.

Last reported at 2017-Dec-31 01:53 UTC. Time now 2018-Jan-23 19:45 UTC.
Position N 27°53' W 091°56'.
Warning: this ship's position is 23 days out of date.

Length 59 m; draft 3.7 m.

Type: Ship. MMSI: 367654230.

Date/timePositionNaut miles runAvg speedWind from/ knotsBaromVisibWave heightAir tempDewpointWater temp
2017-Dec-31 01:53N 27°53' W 091°56'3 8.8
2017-Dec-31 01:30N 27°51' W 091°59'0 0.2
2017-Dec-31 00:12N 27°50' W 091°59'0 1.4
2017-Dec-30 23:59N 27°50' W 091°59'  
2017-Dec-24 10:50N 27°50' W 091°60'2 3.4
2017-Dec-24 10:23N 27°50' W 092°01'0 0.9
2017-Dec-24 09:56N 27°50' W 092°01'2 2.4
2017-Dec-24 09:02N 27°50' W 091°58'0 3.4
2017-Dec-24 08:55N 27°50' W 091°58'0 0.4
2017-Dec-24 08:12N 27°50' W 091°58'1 0.0
2017-Dec-22 17:57N 27°50' W 091°59'  
Track history (hours):
 
Tides and Currents Weather Stations Pressure Air Temp Water Temp Dewpoint Dewpoint Depression Visibility Wind Speed Wind Dir Waves Ship Positions

Adriatic

Owner: ADRIATIC MARINE, LLC, Raceland, LA. More information available from US FCC via Universal Licensing System and Coast Guard Vessel Documentation Center.

Last reported at 2017-Dec-31 01:53 UTC. Time now 2018-Jan-23 19:45 UTC.
Position N 27°53' W 091°56'.
Warning: this ship's position is 23 days out of date.

Length 59 m; draft 3.7 m.

Type: Ship. MMSI: 367654230.

Date/timePositionNaut miles runAvg speedWind from/ knotsBaromVisibWave heightAir tempDewpointWater temp
2017-Dec-31 01:53N 27°53' W 091°56'3 8.8
2017-Dec-31 01:30N 27°51' W 091°59'0 0.2
2017-Dec-31 00:12N 27°50' W 091°59'0 1.4
2017-Dec-30 23:59N 27°50' W 091°59'  
2017-Dec-24 10:50N 27°50' W 091°60'2 3.4
2017-Dec-24 10:23N 27°50' W 092°01'0 0.9
2017-Dec-24 09:56N 27°50' W 092°01'2 2.4
2017-Dec-24 09:02N 27°50' W 091°58'0 3.4
2017-Dec-24 08:55N 27°50' W 091°58'0 0.4
2017-Dec-24 08:12N 27°50' W 091°58'1 0.0
2017-Dec-22 17:57N 27°50' W 091°59'  

Dump ship's entire track history